Time;durP1;ratioP1;P1;durP2;ratioP2;P2;SDS_P1;SDS_P2;PMS_P1;PMS_P2;Temp;Humidity;BMP_temperature;BMP_pressure;BME280_temperature;BME280_humidity;BME280_pressure;Samples;Min_cycle;Max_cycle;Signal;HPM_P1;HPM_P2
2024/01/28 00:00:47;;;;;;;820.80;72.68;;;;;;;;;;4789389;29;20895;-86
2024/01/28 00:03:17;;;;;;;790.05;69.30;;;;;;;;;;4791167;29;20132;-85
2024/01/28 00:05:47;;;;;;;814.20;71.15;;;;;;;;;;4788833;29;20068;-84
2024/01/28 00:08:14;;;;;;;832.22;73.53;;;;;;;;;;4790155;29;21254;-84
2024/01/28 00:10:41;;;;;;;791.95;69.25;;;;;;;;;;4784169;29;20041;-85
2024/01/28 00:13:08;;;;;;;810.47;71.90;;;;;;;;;;4788574;29;20045;-85
2024/01/28 00:15:34;;;;;;;878.65;79.15;;;;;;;;;;4787804;29;20926;-85
2024/01/28 00:18:01;;;;;;;811.88;73.55;;;;;;;;;;4785348;29;20532;-85
2024/01/28 00:20:28;;;;;;;817.08;72.88;;;;;;;;;;4785385;29;21102;-85
2024/01/28 00:22:55;;;;;;;821.40;73.10;;;;;;;;;;4786926;29;20148;-85
2024/01/28 00:25:21;;;;;;;809.75;71.32;;;;;;;;;;4784407;29;21012;-84
2024/01/28 00:27:48;;;;;;;810.40;70.88;;;;;;;;;;4764874;29;20111;-85
2024/01/28 00:30:14;;;;;;;835.58;74.35;;;;;;;;;;4789132;29;20044;-85
2024/01/28 00:32:42;;;;;;;789.80;70.53;;;;;;;;;;4789099;29;20067;-84
2024/01/28 00:35:08;;;;;;;792.00;68.78;;;;;;;;;;4790102;29;20956;-85
2024/01/28 00:37:36;;;;;;;867.38;77.90;;;;;;;;;;4787065;29;20052;-85
2024/01/28 00:40:03;;;;;;;824.85;72.60;;;;;;;;;;4786756;29;21271;-85
2024/01/28 00:42:30;;;;;;;836.88;75.32;;;;;;;;;;4785414;29;21004;-84
2024/01/28 00:44:57;;;;;;;838.95;74.68;;;;;;;;;;4782507;29;20041;-84
2024/01/28 00:47:23;;;;;;;810.88;71.70;;;;;;;;;;4783878;29;20049;-84
2024/01/28 00:49:50;;;;;;;807.78;71.95;;;;;;;;;;4786842;29;20091;-84
2024/01/28 00:52:17;;;;;;;835.05;74.80;;;;;;;;;;4781379;29;21102;-84
2024/01/28 00:54:47;;;;;;;826.88;74.63;;;;;;;;;;4786272;29;20045;-84
2024/01/28 00:57:14;;;;;;;816.05;71.38;;;;;;;;;;4785820;29;20096;-84
2024/01/28 00:59:41;;;;;;;809.53;73.43;;;;;;;;;;4786448;29;20037;-83
2024/01/28 01:02:07;;;;;;;868.10;77.65;;;;;;;;;;4787181;29;20217;-84
2024/01/28 01:04:34;;;;;;;813.60;72.47;;;;;;;;;;4787464;29;21161;-84
2024/01/28 01:07:01;;;;;;;819.25;73.25;;;;;;;;;;4770024;29;20052;-84
2024/01/28 01:09:28;;;;;;;851.30;75.68;;;;;;;;;;4787281;29;21132;-84
2024/01/28 01:11:55;;;;;;;818.63;72.97;;;;;;;;;;4785169;29;20038;-83
2024/01/28 01:14:22;;;;;;;843.17;74.90;;;;;;;;;;4786345;29;20545;-84
2024/01/28 01:16:49;;;;;;;847.58;75.60;;;;;;;;;;4785496;29;20976;-84
2024/01/28 01:19:15;;;;;;;812.20;71.78;;;;;;;;;;4783367;29;20052;-83
2024/01/28 01:21:42;;;;;;;841.28;77.32;;;;;;;;;;4782680;29;20044;-84
2024/01/28 01:24:09;;;;;;;840.72;76.50;;;;;;;;;;4783893;29;20049;-84
2024/01/28 01:26:40;;;;;;;832.83;74.75;;;;;;;;;;4781482;29;20759;-84
2024/01/28 01:29:06;;;;;;;824.30;75.95;;;;;;;;;;4787019;29;20076;-84
2024/01/28 01:31:35;;;;;;;856.00;78.03;;;;;;;;;;4783960;29;20602;-84
2024/01/28 01:34:02;;;;;;;816.15;75.10;;;;;;;;;;4782561;29;20052;-84
2024/01/28 01:36:29;;;;;;;818.00;73.72;;;;;;;;;;4784639;29;21152;-84
2024/01/28 01:38:56;;;;;;;853.17;76.45;;;;;;;;;;4785162;29;20068;-83
2024/01/28 01:41:25;;;;;;;802.88;71.03;;;;;;;;;;4785341;29;20037;-83
2024/01/28 01:43:55;;;;;;;801.90;73.57;;;;;;;;;;4782300;29;20057;-83
2024/01/28 01:46:21;;;;;;;827.75;74.00;;;;;;;;;;4783281;29;20064;-83
2024/01/28 01:48:48;;;;;;;827.65;73.78;;;;;;;;;;4783813;29;21122;-83
2024/01/28 01:51:16;;;;;;;799.88;71.45;;;;;;;;;;4784250;29;20044;-83
2024/01/28 01:53:43;;;;;;;824.05;73.75;;;;;;;;;;4768909;29;20071;-83
2024/01/28 01:56:11;;;;;;;851.33;76.45;;;;;;;;;;4785368;29;20068;-83
2024/01/28 01:58:38;;;;;;;833.53;75.18;;;;;;;;;;4783087;29;21274;-83
2024/01/28 02:01:04;;;;;;;1998.00;240.82;;;;;;;;;;4902518;23;20998;-83
2024/01/28 02:03:31;;;;;;;821.35;73.57;;;;;;;;;;4798020;29;20045;-83
2024/01/28 02:05:58;;;;;;;805.55;73.20;;;;;;;;;;4783020;29;20857;-83
2024/01/28 02:08:26;;;;;;;783.35;69.80;;;;;;;;;;4759364;29;20041;-83
2024/01/28 02:10:53;;;;;;;791.25;71.30;;;;;;;;;;4784820;29;20037;-83
2024/01/28 02:13:19;;;;;;;765.30;68.57;;;;;;;;;;4766052;29;20057;-83
2024/01/28 02:15:46;;;;;;;830.00;75.32;;;;;;;;;;4744086;29;20973;-84
2024/01/28 02:18:13;;;;;;;853.67;77.97;;;;;;;;;;4783791;29;20060;-83
2024/01/28 02:20:42;;;;;;;772.03;68.90;;;;;;;;;;4785334;29;20080;-84
2024/01/28 02:23:09;;;;;;;818.78;75.05;;;;;;;;;;4791869;29;20071;-84
2024/01/28 02:25:36;;;;;;;817.90;73.40;;;;;;;;;;4787800;29;20052;-84
2024/01/28 02:28:03;;;;;;;880.72;80.60;;;;;;;;;;4786146;29;21131;-84
2024/01/28 02:30:29;;;;;;;806.78;72.05;;;;;;;;;;4793086;29;20033;-84
2024/01/28 02:32:56;;;;;;;828.17;75.07;;;;;;;;;;4784765;29;20038;-84
2024/01/28 02:35:22;;;;;;;755.65;66.55;;;;;;;;;;4793177;29;20936;-84
2024/01/28 02:37:49;;;;;;;765.67;67.88;;;;;;;;;;4788283;29;20379;-84
2024/01/28 02:40:16;;;;;;;814.05;72.75;;;;;;;;;;4784728;29;20052;-84
2024/01/28 02:42:42;;;;;;;834.17;75.57;;;;;;;;;;4789450;29;20072;-84
2024/01/28 02:45:10;;;;;;;818.28;73.97;;;;;;;;;;4776183;29;20041;-84
2024/01/28 02:47:37;;;;;;;909.00;83.03;;;;;;;;;;4781027;29;20049;-83
2024/01/28 02:50:04;;;;;;;853.17;77.57;;;;;;;;;;4781399;29;20052;-83
2024/01/28 02:52:31;;;;;;;817.55;73.30;;;;;;;;;;4763218;29;20919;-84
2024/01/28 02:54:58;;;;;;;849.95;77.15;;;;;;;;;;4781622;29;20045;-83
2024/01/28 02:57:24;;;;;;;827.47;74.53;;;;;;;;;;4770435;29;20061;-83
2024/01/28 02:59:51;;;;;;;850.15;77.03;;;;;;;;;;4778263;29;20044;-83
2024/01/28 03:02:18;;;;;;;842.67;75.80;;;;;;;;;;4784594;29;20162;-84
2024/01/28 03:04:45;;;;;;;832.58;74.03;;;;;;;;;;4776785;29;21491;-83
2024/01/28 03:07:12;;;;;;;839.08;76.78;;;;;;;;;;4785590;29;20143;-83
2024/01/28 03:09:39;;;;;;;855.55;78.32;;;;;;;;;;4768169;29;21049;-83
2024/01/28 03:12:06;;;;;;;825.53;74.95;;;;;;;;;;4783028;29;20045;-84
2024/01/28 03:14:34;;;;;;;821.83;74.72;;;;;;;;;;4789557;29;20284;-84
2024/01/28 03:17:00;;;;;;;827.22;75.05;;;;;;;;;;4769305;29;20049;-83
2024/01/28 03:19:27;;;;;;;823.60;76.13;;;;;;;;;;4791473;29;20189;-83
2024/01/28 03:21:54;;;;;;;838.10;77.93;;;;;;;;;;4784089;29;20037;-84
2024/01/28 03:24:22;;;;;;;858.33;80.25;;;;;;;;;;4780469;29;20033;-84
2024/01/28 03:26:49;;;;;;;850.63;79.95;;;;;;;;;;4786268;29;20037;-84
2024/01/28 03:29:16;;;;;;;842.15;77.75;;;;;;;;;;4764367;29;20153;-84
2024/01/28 03:31:43;;;;;;;870.10;81.75;;;;;;;;;;4782156;29;20045;-84
2024/01/28 03:34:10;;;;;;;856.60;78.95;;;;;;;;;;4780952;29;20106;-84
2024/01/28 03:36:37;;;;;;;835.55;77.00;;;;;;;;;;4780402;29;20042;-84
2024/01/28 03:39:04;;;;;;;881.65;83.07;;;;;;;;;;4787119;29;20037;-84
2024/01/28 03:41:31;;;;;;;893.97;83.25;;;;;;;;;;4781507;29;20084;-83
2024/01/28 03:43:58;;;;;;;828.45;76.57;;;;;;;;;;4780294;29;20037;-84
2024/01/28 03:46:25;;;;;;;859.45;78.57;;;;;;;;;;4779049;29;20965;-84
2024/01/28 03:48:51;;;;;;;871.10;78.82;;;;;;;;;;4780009;29;20052;-84
2024/01/28 03:51:18;;;;;;;844.65;77.30;;;;;;;;;;4781614;29;20973;-84
2024/01/28 03:53:45;;;;;;;879.85;81.78;;;;;;;;;;4774552;29;20041;-84
2024/01/28 03:56:12;;;;;;;841.88;76.38;;;;;;;;;;4777823;29;20056;-84
2024/01/28 03:58:39;;;;;;;833.05;75.57;;;;;;;;;;4770581;29;21007;-84
2024/01/28 04:01:05;;;;;;;867.90;79.85;;;;;;;;;;4773280;29;21028;-84
2024/01/28 04:03:32;;;;;;;907.35;84.03;;;;;;;;;;4779866;29;21042;-83
2024/01/28 04:06:00;;;;;;;827.40;75.22;;;;;;;;;;4771720;29;20045;-83
2024/01/28 04:08:27;;;;;;;876.30;80.47;;;;;;;;;;4775642;29;20551;-84
2024/01/28 04:10:54;;;;;;;907.67;84.72;;;;;;;;;;4763035;29;20953;-84
2024/01/28 04:13:20;;;;;;;829.92;75.60;;;;;;;;;;4769764;29;20110;-83
2024/01/28 04:15:47;;;;;;;873.22;80.63;;;;;;;;;;4771542;29;21008;-83
2024/01/28 04:18:14;;;;;;;886.85;81.57;;;;;;;;;;4753819;29;20962;-83
2024/01/28 04:20:41;;;;;;;837.45;76.47;;;;;;;;;;4772185;29;21177;-84
2024/01/28 04:23:08;;;;;;;892.00;81.93;;;;;;;;;;4760822;29;20214;-83
2024/01/28 04:25:35;;;;;;;838.63;76.72;;;;;;;;;;4783258;29;20045;-83
2024/01/28 04:28:02;;;;;;;812.90;74.10;;;;;;;;;;4780095;29;20050;-83
2024/01/28 04:30:29;;;;;;;824.30;75.43;;;;;;;;;;4780611;29;20403;-83
2024/01/28 04:32:56;;;;;;;880.92;80.72;;;;;;;;;;4780750;29;21116;-84
2024/01/28 04:35:23;;;;;;;806.55;72.43;;;;;;;;;;4780884;29;20038;-83
2024/01/28 04:37:50;;;;;;;822.60;74.38;;;;;;;;;;4779898;29;20037;-83
2024/01/28 04:40:16;;;;;;;887.78;81.10;;;;;;;;;;4777146;29;20065;-83
2024/01/28 04:42:43;;;;;;;815.85;74.13;;;;;;;;;;4781653;29;20045;-83
2024/01/28 04:45:11;;;;;;;863.83;79.68;;;;;;;;;;4767342;29;20044;-83
2024/01/28 04:47:38;;;;;;;912.75;85.53;;;;;;;;;;4779000;29;20064;-83
2024/01/28 04:50:06;;;;;;;838.88;77.68;;;;;;;;;;4781147;29;20041;-83
2024/01/28 04:52:33;;;;;;;869.70;79.57;;;;;;;;;;4778209;29;20048;-83
2024/01/28 04:54:59;;;;;;;884.30;80.93;;;;;;;;;;4780502;29;20139;-83
2024/01/28 04:57:26;;;;;;;882.22;80.72;;;;;;;;;;4779603;29;20921;-83
2024/01/28 04:59:53;;;;;;;855.13;79.85;;;;;;;;;;4779648;29;20041;-83
2024/01/28 05:02:20;;;;;;;872.28;80.38;;;;;;;;;;4783912;29;20050;-83
2024/01/28 05:04:46;;;;;;;906.00;84.47;;;;;;;;;;4783431;29;20040;-83
2024/01/28 05:07:13;;;;;;;852.38;77.80;;;;;;;;;;4779915;29;20041;-83
2024/01/28 05:09:40;;;;;;;890.00;82.22;;;;;;;;;;4785342;29;20037;-83
2024/01/28 05:12:07;;;;;;;872.25;80.97;;;;;;;;;;4787233;29;20077;-83
2024/01/28 05:14:34;;;;;;;817.63;75.15;;;;;;;;;;4788373;29;20041;-83
2024/01/28 05:17:01;;;;;;;827.60;76.13;;;;;;;;;;4785623;29;20048;-83
2024/01/28 05:19:28;;;;;;;824.83;76.03;;;;;;;;;;4773149;29;20891;-83
2024/01/28 05:21:54;;;;;;;811.03;73.70;;;;;;;;;;4774146;29;20092;-84
2024/01/28 05:24:21;;;;;;;881.15;81.57;;;;;;;;;;4774389;29;21024;-83
2024/01/28 05:26:48;;;;;;;815.53;74.13;;;;;;;;;;4761846;29;20057;-83
2024/01/28 05:29:15;;;;;;;859.30;78.82;;;;;;;;;;4773540;29;21124;-83
2024/01/28 05:31:42;;;;;;;872.47;79.90;;;;;;;;;;4773569;29;20049;-83
2024/01/28 05:34:08;;;;;;;881.08;81.05;;;;;;;;;;4758052;29;21051;-84
2024/01/28 05:36:35;;;;;;;855.10;78.80;;;;;;;;;;4760559;29;20041;-83
2024/01/28 05:39:02;;;;;;;863.38;80.22;;;;;;;;;;4772775;29;20052;-83
2024/01/28 05:41:29;;;;;;;837.53;76.38;;;;;;;;;;4776975;29;20037;-83
2024/01/28 05:43:55;;;;;;;820.03;74.00;;;;;;;;;;4774514;29;20072;-83
2024/01/28 05:46:22;;;;;;;881.58;81.25;;;;;;;;;;4768651;29;20988;-84
2024/01/28 05:48:48;;;;;;;874.72;79.65;;;;;;;;;;4774059;29;20283;-84
2024/01/28 05:51:15;;;;;;;868.45;80.10;;;;;;;;;;4774198;29;20178;-84
2024/01/28 05:53:42;;;;;;;833.53;77.00;;;;;;;;;;4773409;29;20041;-84
2024/01/28 05:56:09;;;;;;;885.38;81.50;;;;;;;;;;4774610;29;20045;-84
2024/01/28 05:58:35;;;;;;;857.88;77.90;;;;;;;;;;4772618;29;20908;-84
2024/01/28 06:01:06;;;;;;;835.05;75.80;;;;;;;;;;4774671;29;20172;-84
2024/01/28 06:03:33;;;;;;;923.53;85.32;;;;;;;;;;4761226;29;20116;-83
2024/01/28 06:06:01;;;;;;;835.30;76.20;;;;;;;;;;4775773;29;20052;-84
2024/01/28 06:08:29;;;;;;;969.25;92.40;;;;;;;;;;4757447;29;20225;-84
2024/01/28 06:10:56;;;;;;;985.67;93.05;;;;;;;;;;4756554;29;20045;-84
2024/01/28 06:13:23;;;;;;;829.47;75.75;;;;;;;;;;4774765;29;20048;-84
2024/01/28 06:15:51;;;;;;;924.15;86.40;;;;;;;;;;4758607;29;20041;-84
2024/01/28 06:18:19;;;;;;;1029.72;98.30;;;;;;;;;;4752106;29;21224;-84
2024/01/28 06:20:46;;;;;;;816.28;74.60;;;;;;;;;;4776653;29;20033;-85
2024/01/28 06:23:13;;;;;;;737.45;68.05;;;;;;;;;;4785987;29;20156;-85
2024/01/28 06:25:40;;;;;;;903.10;85.10;;;;;;;;;;4777491;29;20041;-84
2024/01/28 06:28:06;;;;;;;926.42;87.30;;;;;;;;;;4777709;29;20045;-84
2024/01/28 06:30:33;;;;;;;897.33;85.50;;;;;;;;;;4763723;29;20038;-84
2024/01/28 06:33:00;;;;;;;883.55;85.72;;;;;;;;;;4765186;29;20990;-84
2024/01/28 06:35:26;;;;;;;873.30;82.03;;;;;;;;;;4759435;29;20046;-84
2024/01/28 06:37:53;;;;;;;864.53;81.57;;;;;;;;;;4764580;29;20552;-84
2024/01/28 06:40:20;;;;;;;947.13;89.15;;;;;;;;;;4761050;29;20624;-84
2024/01/28 06:42:46;;;;;;;872.65;82.75;;;;;;;;;;4767131;29;20044;-84
2024/01/28 06:45:13;;;;;;;965.13;94.45;;;;;;;;;;4770300;29;20566;-83
2024/01/28 06:47:40;;;;;;;902.47;85.72;;;;;;;;;;4760906;29;20042;-83
2024/01/28 06:50:07;;;;;;;907.72;85.95;;;;;;;;;;4760710;29;20052;-82
2024/01/28 06:52:33;;;;;;;894.13;85.25;;;;;;;;;;4746079;29;20048;-83
2024/01/28 06:55:00;;;;;;;967.28;92.55;;;;;;;;;;4759556;29;20038;-83
2024/01/28 06:57:27;;;;;;;951.72;89.90;;;;;;;;;;4759767;29;21187;-83
2024/01/28 06:59:53;;;;;;;870.47;80.68;;;;;;;;;;4761988;29;20965;-82
2024/01/28 07:02:24;;;;;;;945.38;88.50;;;;;;;;;;4762520;29;21312;-82
2024/01/28 07:04:53;;;;;;;988.15;93.82;;;;;;;;;;4757861;29;20096;-83
2024/01/28 07:07:20;;;;;;;887.10;82.07;;;;;;;;;;4764491;29;21103;-83
2024/01/28 07:09:47;;;;;;;910.17;84.57;;;;;;;;;;4760586;29;20037;-83
2024/01/28 07:12:13;;;;;;;907.90;85.35;;;;;;;;;;4761149;29;20207;-83
2024/01/28 07:14:41;;;;;;;895.30;83.72;;;;;;;;;;4759432;29;20082;-83
2024/01/28 07:17:08;;;;;;;913.13;86.28;;;;;;;;;;4746074;29;20109;-83
2024/01/28 07:19:35;;;;;;;931.78;88.30;;;;;;;;;;4763675;29;20044;-82
2024/01/28 07:22:02;;;;;;;888.13;82.95;;;;;;;;;;4759754;29;21042;-82
2024/01/28 07:24:29;;;;;;;907.50;85.10;;;;;;;;;;4763236;29;21005;-82
2024/01/28 07:26:56;;;;;;;954.45;89.85;;;;;;;;;;4764128;29;20045;-82
2024/01/28 07:29:22;;;;;;;912.58;85.47;;;;;;;;;;4759665;29;20152;-82
2024/01/28 07:31:51;;;;;;;1047.25;102.05;;;;;;;;;;4760097;29;20887;-82
2024/01/28 07:34:19;;;;;;;1129.80;112.82;;;;;;;;;;4764575;29;21116;-82
2024/01/28 07:36:47;;;;;;;910.63;86.00;;;;;;;;;;4767275;29;20044;-82
2024/01/28 07:39:14;;;;;;;989.47;94.53;;;;;;;;;;4757387;29;20042;-82
2024/01/28 07:41:41;;;;;;;981.33;93.40;;;;;;;;;;4750791;29;20078;-82
2024/01/28 07:44:08;;;;;;;1041.68;102.38;;;;;;;;;;4741742;29;20046;-82
2024/01/28 07:46:35;;;;;;;897.08;83.65;;;;;;;;;;4750727;29;20046;-82
2024/01/28 07:49:01;;;;;;;880.83;82.05;;;;;;;;;;4754942;29;20133;-83
2024/01/28 07:51:28;;;;;;;956.17;91.30;;;;;;;;;;4757609;29;20045;-83
2024/01/28 07:53:55;;;;;;;889.88;83.18;;;;;;;;;;4757083;29;20860;-83
2024/01/28 07:56:22;;;;;;;913.17;85.72;;;;;;;;;;4764772;29;20046;-83
2024/01/28 07:58:48;;;;;;;918.65;86.03;;;;;;;;;;4761138;29;20041;-83
2024/01/28 08:01:15;;;;;;;895.00;83.47;;;;;;;;;;4748597;29;20052;-83
2024/01/28 08:03:41;;;;;;;916.65;86.18;;;;;;;;;;4763511;29;20931;-83
2024/01/28 08:06:09;;;;;;;924.75;87.95;;;;;;;;;;4755874;29;21090;-82
2024/01/28 08:08:36;;;;;;;901.30;84.38;;;;;;;;;;4764145;29;20029;-83
2024/01/28 08:11:02;;;;;;;962.20;90.80;;;;;;;;;;4757462;29;21003;-83
2024/01/28 08:13:30;;;;;;;1021.65;98.60;;;;;;;;;;4756166;29;20124;-80
2024/01/28 08:16:01;;;;;;;954.85;90.65;;;;;;;;;;4754337;29;20042;-81
2024/01/28 08:18:28;;;;;;;1000.70;96.28;;;;;;;;;;4759670;29;20068;-80
2024/01/28 08:20:56;;;;;;;1003.80;96.63;;;;;;;;;;4741944;29;20037;-81
2024/01/28 08:23:23;;;;;;;1093.75;105.93;;;;;;;;;;4728994;29;20044;-79
2024/01/28 08:25:49;;;;;;;961.10;90.88;;;;;;;;;;4761092;29;20076;-81
2024/01/28 08:28:16;;;;;;;1070.95;104.93;;;;;;;;;;4752382;29;20100;-79
2024/01/28 08:30:44;;;;;;;969.15;91.85;;;;;;;;;;4758557;29;20045;-79
2024/01/28 08:33:10;;;;;;;998.65;95.57;;;;;;;;;;4758304;29;20144;-80
2024/01/28 08:35:37;;;;;;;1146.07;111.20;;;;;;;;;;4751004;29;20997;-81
2024/01/28 08:38:08;;;;;;;1054.72;101.93;;;;;;;;;;4745057;29;21112;-80
2024/01/28 08:40:34;;;;;;;950.50;90.53;;;;;;;;;;4757215;29;20225;-80
2024/01/28 08:43:04;;;;;;;1019.65;97.45;;;;;;;;;;4754894;29;20041;-80
2024/01/28 08:45:32;;;;;;;1009.20;96.18;;;;;;;;;;4756179;29;20116;-81
2024/01/28 08:47:59;;;;;;;975.63;92.93;;;;;;;;;;4757983;29;20105;-81
2024/01/28 08:50:27;;;;;;;981.33;92.93;;;;;;;;;;4750576;29;20041;-81
2024/01/28 08:52:53;;;;;;;971.90;91.70;;;;;;;;;;4745970;29;20225;-80
2024/01/28 08:55:20;;;;;;;955.88;90.60;;;;;;;;;;4746905;29;20053;-80
2024/01/28 08:57:47;;;;;;;1033.60;100.38;;;;;;;;;;4748056;29;20216;-80
2024/01/28 09:00:14;;;;;;;1097.78;106.57;;;;;;;;;;4746078;29;21173;-80
2024/01/28 09:02:41;;;;;;;984.58;93.97;;;;;;;;;;4751782;29;21189;-81
2024/01/28 09:05:08;;;;;;;1011.53;96.15;;;;;;;;;;4742190;29;20045;-80
2024/01/28 09:07:35;;;;;;;1034.32;99.32;;;;;;;;;;4749752;29;20045;-80
2024/01/28 09:10:01;;;;;;;951.90;89.85;;;;;;;;;;4748801;29;20034;-80
2024/01/28 09:12:28;;;;;;;976.85;92.80;;;;;;;;;;4746358;29;20046;-81
2024/01/28 09:14:55;;;;;;;1001.58;96.65;;;;;;;;;;4758672;29;20105;-81
2024/01/28 09:17:22;;;;;;;972.22;92.88;;;;;;;;;;4752759;29;20041;-81
2024/01/28 09:19:48;;;;;;;1000.90;99.03;;;;;;;;;;4751539;29;20033;-79
2024/01/28 09:22:15;;;;;;;1101.03;118.38;;;;;;;;;;4750928;29;21102;-79
2024/01/28 09:24:42;;;;;;;964.20;103.15;;;;;;;;;;4754074;29;20100;-75
2024/01/28 09:27:10;;;;;;;997.60;103.70;;;;;;;;;;4739591;29;20041;-80
2024/01/28 09:29:37;;;;;;;1030.07;103.65;;;;;;;;;;4751000;29;20052;-78
2024/01/28 09:32:04;;;;;;;951.45;94.55;;;;;;;;;;4756415;29;20052;-82
2024/01/28 09:34:31;;;;;;;965.15;95.03;;;;;;;;;;4755351;29;20129;-79
2024/01/28 09:36:58;;;;;;;1017.17;101.43;;;;;;;;;;4754805;29;20033;-79
2024/01/28 09:39:25;;;;;;;993.03;97.00;;;;;;;;;;4754122;29;20037;-79
2024/01/28 09:41:59;;;;;;;1007.63;97.75;;;;;;;;;;4754151;29;20100;-78
2024/01/28 09:44:26;;;;;;;925.05;88.05;;;;;;;;;;4754895;29;20049;-82
2024/01/28 09:46:53;;;;;;;1014.00;95.93;;;;;;;;;;4754849;29;20061;-81
2024/01/28 09:49:21;;;;;;;983.65;94.07;;;;;;;;;;4759356;29;21278;-81
2024/01/28 09:51:48;;;;;;;1006.47;95.03;;;;;;;;;;4760292;29;20041;-79
2024/01/28 09:54:14;;;;;;;1107.40;107.65;;;;;;;;;;4757691;29;20045;-79
2024/01/28 09:56:41;;;;;;;1089.70;107.10;;;;;;;;;;4751363;29;20049;-79
2024/01/28 09:59:12;;;;;;;1070.70;103.57;;;;;;;;;;4753069;29;20996;-81
2024/01/28 10:01:42;;;;;;;991.60;95.93;;;;;;;;;;4751188;29;20564;-82
2024/01/28 10:04:14;;;;;;;991.80;96.28;;;;;;;;;;4746585;29;20038;-81
2024/01/28 10:06:41;;;;;;;943.25;89.85;;;;;;;;;;4746920;29;20042;-82
2024/01/28 10:09:08;;;;;;;927.50;87.80;;;;;;;;;;4736874;29;20033;-83
2024/01/28 10:11:34;;;;;;;941.63;89.03;;;;;;;;;;4756703;29;20038;-83
2024/01/28 10:14:02;;;;;;;846.83;78.45;;;;;;;;;;4761498;29;20232;-84
2024/01/28 10:16:32;;;;;;;960.85;91.25;;;;;;;;;;4759112;29;21352;-77
2024/01/28 10:18:58;;;;;;;958.97;91.43;;;;;;;;;;4747359;29;20046;-80
2024/01/28 10:21:25;;;;;;;962.08;91.65;;;;;;;;;;4764586;29;20453;-82
2024/01/28 10:23:52;;;;;;;954.42;90.78;;;;;;;;;;4747603;29;20045;-83
2024/01/28 10:26:20;;;;;;;1133.03;110.75;;;;;;;;;;4750174;29;20049;-82
2024/01/28 10:28:47;;;;;;;1007.38;95.60;;;;;;;;;;4753858;29;20037;-82
2024/01/28 10:31:14;;;;;;;960.47;90.45;;;;;;;;;;4751204;29;20049;-82
2024/01/28 10:33:40;;;;;;;969.83;91.90;;;;;;;;;;4755721;29;21228;-83
2024/01/28 10:36:08;;;;;;;962.67;90.95;;;;;;;;;;4755241;29;20040;-83
2024/01/28 10:38:35;;;;;;;943.38;90.13;;;;;;;;;;4773954;29;20044;-83
2024/01/28 10:41:01;;;;;;;983.80;94.63;;;;;;;;;;4756498;29;20068;-82
2024/01/28 10:43:34;;;;;;;936.65;87.78;;;;;;;;;;4758455;29;21249;-83
2024/01/28 10:46:01;;;;;;;934.47;87.53;;;;;;;;;;4754234;29;20109;-82
2024/01/28 10:48:28;;;;;;;959.53;89.60;;;;;;;;;;4751473;29;20065;-82
2024/01/28 10:50:56;;;;;;;1028.28;97.60;;;;;;;;;;4755886;29;20072;-82
2024/01/28 10:53:23;;;;;;;1024.32;96.85;;;;;;;;;;4755120;29;20075;-82
2024/01/28 10:55:50;;;;;;;1065.80;104.38;;;;;;;;;;4755814;29;20041;-82
2024/01/28 10:58:17;;;;;;;1061.25;101.95;;;;;;;;;;4755756;29;21060;-82
2024/01/28 11:00:45;;;;;;;1030.70;101.05;;;;;;;;;;4758032;29;21008;-81
2024/01/28 11:03:11;;;;;;;923.92;87.95;;;;;;;;;;4755689;29;20052;-82
2024/01/28 11:05:38;;;;;;;1103.18;109.88;;;;;;;;;;4760119;29;20033;-83
2024/01/28 11:08:05;;;;;;;911.20;86.28;;;;;;;;;;4757819;29;20133;-82
2024/01/28 11:10:32;;;;;;;976.30;94.07;;;;;;;;;;4743914;29;21020;-84
2024/01/28 11:13:00;;;;;;;1110.63;112.05;;;;;;;;;;4745395;29;21171;-81
2024/01/28 11:15:28;;;;;;;999.15;100.68;;;;;;;;;;4748751;29;21128;-82
2024/01/28 11:17:55;;;;;;;876.63;84.18;;;;;;;;;;4750496;29;20962;-81
2024/01/28 11:20:23;;;;;;;1015.30;98.88;;;;;;;;;;4749037;29;20045;-81
2024/01/28 11:22:51;;;;;;;1027.82;100.40;;;;;;;;;;4748654;29;20041;-81
2024/01/28 11:25:21;;;;;;;989.15;96.35;;;;;;;;;;4753569;29;20050;-81
2024/01/28 11:27:48;;;;;;;968.50;93.95;;;;;;;;;;4751255;29;20155;-81
2024/01/28 11:30:20;;;;;;;1000.78;98.00;;;;;;;;;;4752157;29;20058;-81
2024/01/28 11:32:48;;;;;;;998.95;98.07;;;;;;;;;;4754888;29;20042;-81
2024/01/28 11:35:14;;;;;;;953.08;92.10;;;;;;;;;;4754915;29;20044;-82
2024/01/28 11:38:00;;;;;;;950.20;91.70;;;;;;;;;;4757301;29;20136;-81
2024/01/28 11:40:30;;;;;;;998.10;95.50;;;;;;;;;;4758175;29;20145;-81
2024/01/28 11:42:57;;;;;;;942.38;90.75;;;;;;;;;;4759343;29;20042;-81
2024/01/28 11:45:25;;;;;;;1022.53;100.35;;;;;;;;;;4757072;29;20044;-81
2024/01/28 11:47:52;;;;;;;921.22;87.50;;;;;;;;;;4754859;29;20141;-81
2024/01/28 11:50:19;;;;;;;1007.50;99.13;;;;;;;;;;4758811;29;20052;-80
2024/01/28 11:52:45;;;;;;;963.75;94.18;;;;;;;;;;4760047;29;20049;-81
2024/01/28 11:55:13;;;;;;;933.30;90.10;;;;;;;;;;4743784;29;20045;-82
2024/01/28 11:57:40;;;;;;;979.15;94.25;;;;;;;;;;4757715;29;20140;-81
2024/01/28 12:00:09;;;;;;;1032.70;100.68;;;;;;;;;;4743007;29;20044;-82
2024/01/28 12:02:37;;;;;;;957.00;92.10;;;;;;;;;;4743261;29;20052;-81
2024/01/28 12:05:08;;;;;;;966.00;93.70;;;;;;;;;;4727190;29;20899;-81
2024/01/28 12:07:36;;;;;;;992.03;96.00;;;;;;;;;;4748309;29;20052;-82
2024/01/28 12:10:05;;;;;;;1000.70;99.05;;;;;;;;;;4741604;29;20041;-82
2024/01/28 12:12:34;;;;;;;981.47;99.00;;;;;;;;;;4741958;29;21214;-81
2024/01/28 12:15:02;;;;;;;1008.60;99.60;;;;;;;;;;4725238;29;20178;-81
2024/01/28 12:17:32;;;;;;;1055.90;102.72;;;;;;;;;;4738216;29;20582;-81
2024/01/28 12:19:59;;;;;;;975.22;93.82;;;;;;;;;;4741021;29;21211;-82
2024/01/28 12:22:26;;;;;;;1143.82;115.82;;;;;;;;;;4738532;29;20053;-81
2024/01/28 12:24:54;;;;;;;1084.20;107.45;;;;;;;;;;4737210;29;20148;-82
2024/01/28 12:27:21;;;;;;;1022.58;98.90;;;;;;;;;;4740666;29;20997;-81
2024/01/28 12:29:48;;;;;;;1108.28;109.30;;;;;;;;;;4734949;29;20042;-81
2024/01/28 12:32:15;;;;;;;1023.15;99.13;;;;;;;;;;4737257;29;20104;-83
2024/01/28 12:34:42;;;;;;;1090.90;106.82;;;;;;;;;;4738040;29;20164;-83
2024/01/28 12:37:09;;;;;;;866.83;81.55;;;;;;;;;;4749687;29;20049;-85
2024/01/28 12:39:36;;;;;;;1014.17;98.72;;;;;;;;;;4743075;29;20045;-81
2024/01/28 12:42:03;;;;;;;966.05;92.78;;;;;;;;;;4744246;29;21224;-82
2024/01/28 12:44:29;;;;;;;987.25;95.95;;;;;;;;;;4741891;29;20034;-88
2024/01/28 12:46:56;;;;;;;1038.18;101.82;;;;;;;;;;4740508;29;21180;-80
2024/01/28 12:49:23;;;;;;;1012.67;99.28;;;;;;;;;;4741387;29;20045;-81
2024/01/28 12:51:50;;;;;;;997.35;99.05;;;;;;;;;;4741608;29;21006;-81
2024/01/28 12:54:17;;;;;;;1045.95;104.30;;;;;;;;;;4743745;29;20045;-83
2024/01/28 12:56:45;;;;;;;998.83;98.80;;;;;;;;;;4746360;29;21097;-82
2024/01/28 12:59:11;;;;;;;973.80;95.00;;;;;;;;;;4744367;29;20046;-82
2024/01/28 13:01:38;;;;;;;1073.32;106.63;;;;;;;;;;4731410;29;20222;-82
2024/01/28 13:04:05;;;;;;;1020.20;100.78;;;;;;;;;;4737341;29;20970;-81
2024/01/28 13:06:32;;;;;;;1029.85;103.57;;;;;;;;;;4738999;29;20037;-81
2024/01/28 13:08:59;;;;;;;985.70;98.35;;;;;;;;;;4726462;29;20113;-80
2024/01/28 13:11:26;;;;;;;1034.88;104.53;;;;;;;;;;4738662;29;20052;-81
2024/01/28 13:13:54;;;;;;;1019.50;102.53;;;;;;;;;;4742315;29;20045;-81
2024/01/28 13:16:22;;;;;;;1056.82;106.72;;;;;;;;;;4726549;29;20057;-80
2024/01/28 13:18:49;;;;;;;1046.25;106.70;;;;;;;;;;4739566;29;20041;-81
2024/01/28 13:21:16;;;;;;;1015.80;103.10;;;;;;;;;;4743178;29;20041;-83
2024/01/28 13:23:43;;;;;;;1008.92;101.93;;;;;;;;;;4742185;29;20041;-77
2024/01/28 13:26:10;;;;;;;1021.10;105.80;;;;;;;;;;4741015;29;20155;-78
2024/01/28 13:28:36;;;;;;;985.13;101.68;;;;;;;;;;4742303;29;20056;-79
2024/01/28 13:31:03;;;;;;;996.03;100.95;;;;;;;;;;4740897;29;20057;-79
2024/01/28 13:33:30;;;;;;;1006.92;102.97;;;;;;;;;;4740419;29;21318;-79
2024/01/28 13:35:57;;;;;;;1012.05;102.57;;;;;;;;;;4724919;29;20276;-78
2024/01/28 13:38:24;;;;;;;998.10;101.82;;;;;;;;;;4739615;29;20156;-78
2024/01/28 13:40:51;;;;;;;1023.50;104.00;;;;;;;;;;4739882;29;20045;-80
2024/01/28 13:43:17;;;;;;;995.15;102.85;;;;;;;;;;4741690;29;20148;-78
2024/01/28 13:45:44;;;;;;;1029.30;104.35;;;;;;;;;;4737962;29;20881;-78
2024/01/28 13:48:11;;;;;;;1017.45;103.93;;;;;;;;;;4745147;29;20541;-79
2024/01/28 13:50:39;;;;;;;1005.22;103.45;;;;;;;;;;4745658;29;20117;-80
2024/01/28 13:53:08;;;;;;;958.30;98.57;;;;;;;;;;4742758;29;20041;-79
2024/01/28 13:55:35;;;;;;;1028.32;105.57;;;;;;;;;;4741048;29;20052;-79
2024/01/28 13:58:02;;;;;;;1007.50;102.90;;;;;;;;;;4742550;29;20041;-80